createdAt,value
2023-12-23T00:02:22.181Z,59.30
2023-12-23T00:05:08.652Z,59.53
2023-12-23T00:07:55.144Z,59.04
2023-12-23T00:10:41.279Z,60.09
2023-12-23T00:13:28.030Z,59.07
2023-12-23T00:16:14.183Z,59.18
2023-12-23T00:19:00.393Z,59.21
2023-12-23T00:21:47.369Z,59.57
2023-12-23T00:24:33.240Z,59.08
2023-12-23T00:27:19.491Z,59.45
2023-12-23T00:30:07.305Z,59.17
2023-12-23T00:32:53.188Z,58.91
2023-12-23T00:35:39.182Z,59.03
2023-12-23T00:38:25.757Z,59.06
2023-12-23T00:41:12.021Z,59.31
2023-12-23T00:43:58.069Z,58.74
2023-12-23T00:46:44.055Z,58.86
2023-12-23T00:49:30.298Z,59.10
2023-12-23T00:52:17.157Z,58.85
2023-12-23T00:55:03.956Z,59.21
2023-12-23T00:57:50.630Z,59.38
2023-12-23T01:00:39.804Z,59.22
2023-12-23T01:03:25.925Z,59.12
2023-12-23T01:06:12.095Z,58.96
2023-12-23T01:08:58.144Z,59.17
2023-12-23T01:11:44.357Z,59.27
2023-12-23T01:14:30.388Z,59.65
2023-12-23T01:17:16.600Z,59.88
2023-12-23T01:20:03.425Z,59.05
2023-12-23T01:22:49.332Z,59.19
2023-12-23T01:25:35.362Z,59.10
2023-12-23T01:28:21.470Z,59.47
2023-12-23T01:31:07.507Z,59.40
2023-12-23T01:33:53.686Z,59.14
2023-12-23T01:36:39.993Z,59.39
2023-12-23T01:39:25.961Z,59.41
2023-12-23T01:42:12.064Z,59.49
2023-12-23T01:44:57.889Z,59.68
2023-12-23T01:47:49.076Z,59.52
2023-12-23T01:50:35.451Z,59.58
2023-12-23T01:53:22.423Z,59.80
2023-12-23T01:56:09.393Z,59.62
2023-12-23T01:58:56.326Z,59.22
2023-12-23T02:01:42.989Z,59.37
2023-12-23T02:04:29.161Z,59.19
2023-12-23T02:07:15.711Z,59.51
2023-12-23T02:10:04.695Z,59.43
2023-12-23T02:13:18.520Z,59.38
2023-12-23T02:16:06.090Z,59.35
2023-12-23T02:18:53.062Z,59.72
2023-12-23T02:21:38.942Z,59.47
2023-12-23T02:24:26.140Z,59.16
2023-12-23T02:27:14.506Z,59.05
2023-12-23T02:30:01.308Z,59.32
2023-12-23T02:32:47.546Z,59.60
2023-12-23T02:35:33.542Z,59.46
2023-12-23T02:38:23.376Z,59.38
2023-12-23T02:41:09.919Z,59.65
2023-12-23T02:43:55.862Z,59.91
2023-12-23T02:46:41.759Z,59.63
2023-12-23T02:49:27.587Z,59.62
2023-12-23T02:52:15.068Z,59.81
2023-12-23T02:55:01.082Z,59.35
2023-12-23T02:57:47.083Z,59.11
2023-12-23T03:00:33.273Z,59.41
2023-12-23T03:03:19.628Z,59.16
2023-12-23T03:06:06.755Z,59.17
2023-12-23T03:08:53.058Z,59.30
2023-12-23T03:11:38.942Z,59.18
2023-12-23T03:14:25.325Z,58.89
2023-12-23T03:17:11.176Z,59.24
2023-12-23T03:19:57.243Z,59.15
2023-12-23T03:22:44.163Z,59.04
2023-12-23T03:25:30.456Z,59.31
2023-12-23T03:28:16.785Z,59.04
2023-12-23T03:31:02.666Z,58.93
2023-12-23T03:33:48.459Z,58.79
2023-12-23T03:36:34.374Z,59.00
2023-12-23T03:39:21.113Z,58.82
2023-12-23T03:42:07.260Z,58.69
2023-12-23T03:44:53.225Z,59.29
2023-12-23T03:47:41.273Z,59.07
2023-12-23T03:50:30.927Z,59.09
2023-12-23T03:53:17.349Z,59.31
2023-12-23T03:56:05.256Z,59.08
2023-12-23T03:58:51.315Z,59.12
2023-12-23T04:01:37.621Z,59.26
2023-12-23T04:04:23.987Z,59.20
2023-12-23T04:07:09.975Z,58.96
2023-12-23T04:09:55.947Z,59.41
2023-12-23T04:12:41.847Z,58.96
2023-12-23T04:15:27.735Z,59.22
2023-12-23T04:18:14.209Z,59.52
2023-12-23T04:21:00.339Z,58.90
2023-12-23T04:23:46.330Z,59.21
2023-12-23T04:26:33.917Z,59.26
2023-12-23T04:29:20.067Z,59.45
2023-12-23T04:32:07.153Z,59.15
2023-12-23T04:34:53.320Z,60.16
2023-12-23T04:37:43.450Z,59.94
2023-12-23T04:40:30.481Z,59.48
2023-12-23T04:43:16.555Z,60.11
2023-12-23T04:46:04.014Z,59.54
2023-12-23T04:48:50.303Z,59.50
2023-12-23T04:51:36.657Z,59.62
2023-12-23T04:54:23.005Z,60.37
2023-12-23T04:57:09.123Z,59.50
2023-12-23T04:59:55.180Z,59.53
2023-12-23T05:02:41.348Z,59.42
2023-12-23T05:05:27.410Z,59.29
2023-12-23T05:08:18.287Z,59.44
2023-12-23T05:11:04.843Z,59.37
2023-12-23T05:13:50.616Z,58.95
2023-12-23T05:16:36.756Z,59.45
2023-12-23T05:19:23.131Z,59.06
2023-12-23T05:22:10.009Z,59.46
2023-12-23T05:24:56.657Z,59.35
2023-12-23T05:27:42.825Z,58.71
2023-12-23T05:30:28.983Z,59.05
2023-12-23T05:33:15.328Z,59.45
2023-12-23T05:36:01.246Z,59.14
2023-12-23T05:38:47.107Z,59.08
2023-12-23T05:41:33.848Z,59.66
2023-12-23T05:44:20.034Z,59.76
2023-12-23T05:47:06.107Z,59.71
2023-12-23T05:49:52.175Z,59.48
2023-12-23T05:52:38.278Z,59.54
2023-12-23T05:55:24.366Z,59.70
2023-12-23T05:58:10.691Z,59.62
2023-12-23T06:00:56.691Z,59.75
2023-12-23T06:03:42.697Z,59.33
2023-12-23T06:06:28.741Z,59.67
2023-12-23T06:09:14.827Z,59.34
2023-12-23T06:12:00.988Z,59.48
2023-12-23T06:14:46.836Z,59.75
2023-12-23T06:17:33.027Z,59.88
2023-12-23T06:20:19.729Z,59.76
2023-12-23T06:23:05.871Z,59.26
2023-12-23T06:25:51.913Z,59.59
2023-12-23T06:28:38.230Z,59.89
2023-12-23T06:31:24.546Z,59.84
2023-12-23T06:34:10.551Z,59.88
2023-12-23T06:36:56.466Z,59.91
2023-12-23T06:39:42.465Z,59.79
2023-12-23T06:42:28.305Z,59.56
2023-12-23T06:45:14.459Z,59.80
2023-12-23T06:48:00.831Z,59.53
2023-12-23T06:50:47.421Z,60.13
2023-12-23T06:53:33.689Z,59.63
2023-12-23T06:56:20.053Z,59.85
2023-12-23T06:59:10.788Z,60.01
2023-12-23T07:01:56.903Z,59.70
2023-12-23T07:04:43.680Z,59.93
2023-12-23T07:07:29.869Z,59.89
2023-12-23T07:10:15.900Z,60.03
2023-12-23T07:13:01.762Z,59.82
2023-12-23T07:15:47.809Z,60.11
2023-12-23T07:18:33.905Z,59.92
2023-12-23T07:21:20.588Z,59.84
2023-12-23T07:24:07.056Z,60.10
2023-12-23T07:26:52.986Z,59.78
2023-12-23T07:29:44.080Z,60.14
2023-12-23T07:32:31.835Z,60.18
2023-12-23T07:35:20.989Z,60.15
2023-12-23T07:38:08.826Z,59.99
2023-12-23T07:40:55.686Z,60.28
2023-12-23T07:43:41.663Z,60.15
2023-12-23T07:46:27.538Z,60.42
2023-12-23T07:49:14.651Z,60.02
2023-12-23T07:52:01.006Z,59.89
2023-12-23T07:54:47.162Z,60.01
2023-12-23T07:57:33.169Z,59.81
2023-12-23T08:00:19.514Z,59.96
2023-12-23T08:03:05.987Z,59.70
2023-12-23T08:05:52.389Z,60.46
2023-12-23T08:08:38.386Z,60.19
2023-12-23T08:11:24.450Z,60.53
2023-12-23T08:14:12.423Z,60.62
2023-12-23T08:16:58.702Z,60.81
2023-12-23T08:19:44.678Z,60.65
2023-12-23T08:22:30.876Z,60.35
2023-12-23T08:25:17.198Z,60.33
2023-12-23T08:28:03.360Z,60.35
2023-12-23T08:30:49.692Z,60.66
2023-12-23T08:33:35.862Z,60.50
2023-12-23T08:36:22.203Z,60.75
2023-12-23T08:39:08.385Z,60.92
2023-12-23T08:41:54.705Z,60.93
2023-12-23T08:44:41.147Z,60.54
2023-12-23T08:47:27.168Z,61.19
2023-12-23T08:50:13.088Z,60.64
2023-12-23T08:52:59.126Z,60.77
2023-12-23T08:55:48.229Z,61.55
2023-12-23T08:58:34.406Z,61.93
2023-12-23T09:01:20.440Z,61.99
2023-12-23T09:04:06.616Z,62.55
2023-12-23T09:06:52.579Z,61.57
2023-12-23T09:09:41.637Z,62.21
2023-12-23T09:12:27.653Z,62.47
2023-12-23T09:15:13.847Z,63.21
2023-12-23T09:18:00.373Z,63.22
2023-12-23T09:20:46.771Z,62.48
2023-12-23T09:23:32.796Z,62.06
2023-12-23T09:26:19.208Z,61.86
2023-12-23T09:29:05.565Z,62.26
2023-12-23T09:31:51.923Z,62.08
2023-12-23T09:34:38.152Z,61.76
2023-12-23T09:37:24.387Z,61.99
2023-12-23T09:40:11.898Z,61.17
2023-12-23T09:42:57.989Z,61.22
2023-12-23T09:45:44.249Z,60.97
2023-12-23T09:48:30.482Z,60.92
2023-12-23T09:51:18.734Z,61.12
2023-12-23T09:54:08.670Z,60.56
2023-12-23T09:56:56.822Z,60.64
2023-12-23T09:59:42.987Z,60.70
2023-12-23T10:02:29.324Z,61.07
2023-12-23T10:05:15.332Z,60.57
2023-12-23T10:08:01.259Z,60.78
2023-12-23T10:10:49.978Z,60.36
2023-12-23T10:13:37.618Z,60.49
2023-12-23T10:16:23.910Z,60.13
2023-12-23T10:19:10.423Z,60.34
2023-12-23T10:21:56.500Z,60.12
2023-12-23T10:24:42.416Z,59.83
2023-12-23T10:27:31.805Z,60.12
2023-12-23T10:30:18.358Z,60.35
2023-12-23T10:33:09.745Z,59.92
2023-12-23T10:35:58.006Z,59.83
2023-12-23T10:38:50.632Z,59.31
2023-12-23T10:41:52.008Z,57.52
2023-12-23T10:44:38.343Z,59.25
2023-12-23T10:47:25.141Z,59.32
2023-12-23T10:50:11.549Z,59.36
2023-12-23T10:52:58.032Z,59.38
2023-12-23T10:55:45.145Z,58.89
2023-12-23T10:58:32.530Z,58.76
2023-12-23T11:01:21.072Z,58.86
2023-12-23T11:04:07.083Z,58.47
2023-12-23T11:06:59.657Z,58.72
2023-12-23T11:09:47.894Z,58.70
2023-12-23T11:12:34.882Z,58.24
2023-12-23T11:15:21.121Z,58.63
2023-12-23T11:18:09.064Z,58.48
2023-12-23T11:20:55.617Z,58.91
2023-12-23T11:23:41.621Z,58.88
2023-12-23T11:26:41.429Z,58.94
2023-12-23T11:29:27.739Z,58.97
2023-12-23T11:32:15.079Z,58.88
2023-12-23T11:35:02.285Z,58.49
2023-12-23T11:37:51.375Z,58.49
2023-12-23T11:40:38.112Z,58.48
2023-12-23T11:43:24.461Z,58.18
2023-12-23T12:34:38.385Z,60.14
2023-12-23T12:37:24.807Z,60.14
2023-12-23T12:40:12.403Z,59.44
2023-12-23T12:42:58.653Z,58.85
2023-12-23T12:45:44.606Z,58.60
2023-12-23T12:48:30.760Z,58.74
2023-12-23T12:51:17.454Z,58.13
2023-12-23T12:54:06.182Z,58.57
2023-12-23T12:56:52.244Z,57.77
2023-12-23T12:59:38.168Z,58.46
2023-12-23T13:02:24.557Z,58.78
2023-12-23T13:05:10.949Z,58.64
2023-12-23T13:07:57.192Z,58.40
2023-12-23T13:10:45.954Z,57.74
2023-12-23T13:13:34.146Z,56.76
2023-12-23T13:16:20.499Z,54.95
2023-12-23T13:19:07.206Z,54.96
2023-12-23T13:21:53.525Z,54.27
2023-12-23T13:24:39.631Z,53.52
2023-12-23T13:27:25.722Z,53.08
2023-12-23T13:30:12.224Z,52.40
2023-12-23T13:32:58.937Z,51.45
2023-12-23T13:35:44.987Z,51.13
2023-12-23T13:38:31.208Z,51.17
2023-12-23T13:41:29.373Z,51.11
2023-12-23T13:44:15.306Z,51.26
2023-12-23T13:47:01.812Z,51.00
2023-12-23T13:49:48.270Z,51.16
2023-12-23T13:52:35.146Z,51.68
2023-12-23T13:55:21.126Z,52.00
2023-12-23T13:58:11.099Z,51.53
2023-12-23T14:00:58.848Z,51.46
2023-12-23T14:03:45.350Z,51.96
2023-12-23T14:06:31.808Z,52.07
2023-12-23T14:09:17.796Z,52.09
2023-12-23T14:12:04.281Z,52.31
2023-12-23T14:14:50.270Z,52.96
2023-12-23T14:17:36.568Z,52.36
2023-12-23T14:20:22.784Z,52.28
2023-12-23T14:23:08.794Z,52.20
2023-12-23T14:25:55.021Z,52.48
2023-12-23T14:28:41.567Z,52.40
2023-12-23T14:31:29.374Z,52.21
2023-12-23T14:34:16.273Z,52.46
2023-12-23T14:37:02.342Z,52.10
2023-12-23T14:39:49.902Z,52.32
2023-12-23T14:42:35.949Z,52.14
2023-12-23T14:45:21.900Z,52.18
2023-12-23T14:48:08.217Z,52.54
2023-12-23T14:50:54.677Z,52.16
2023-12-23T14:53:40.920Z,52.45
2023-12-23T14:56:27.740Z,52.53
2023-12-23T14:59:14.144Z,52.54
2023-12-23T15:02:01.150Z,52.04
2023-12-23T15:04:47.236Z,52.45
2023-12-23T15:07:33.143Z,51.92
2023-12-23T15:10:19.305Z,52.41
2023-12-23T15:13:05.851Z,51.90
2023-12-23T15:15:52.328Z,51.80
2023-12-23T15:18:38.597Z,52.00
2023-12-23T15:21:25.250Z,51.91
2023-12-23T15:24:11.459Z,52.18
2023-12-23T15:26:57.555Z,51.79
2023-12-23T15:29:44.578Z,52.02
2023-12-23T15:32:32.404Z,52.11
2023-12-23T15:35:18.883Z,51.80
2023-12-23T15:38:05.194Z,51.73
2023-12-23T15:40:53.143Z,51.58
2023-12-23T15:43:39.274Z,52.07
2023-12-23T15:46:25.422Z,51.81
2023-12-23T15:49:11.955Z,52.17
2023-12-23T15:51:58.172Z,51.79
2023-12-23T15:54:46.377Z,52.44
2023-12-23T15:57:32.505Z,51.56
2023-12-23T16:00:19.268Z,51.45
2023-12-23T16:03:05.916Z,52.17
2023-12-23T16:05:52.075Z,52.24
2023-12-23T16:08:38.585Z,51.69
2023-12-23T16:11:24.984Z,51.54
2023-12-23T16:14:11.455Z,51.82
2023-12-23T16:16:57.592Z,51.65
2023-12-23T16:19:45.275Z,51.60
2023-12-23T16:22:32.133Z,51.78
2023-12-23T16:25:18.862Z,51.88
2023-12-23T16:28:05.091Z,51.80
2023-12-23T16:30:52.548Z,51.76
2023-12-23T16:33:38.870Z,52.08
2023-12-23T16:36:25.115Z,51.60
2023-12-23T16:39:11.098Z,51.70
2023-12-23T16:41:57.295Z,51.65
2023-12-23T16:44:43.548Z,51.86
2023-12-23T16:47:29.769Z,51.92
2023-12-23T16:50:16.646Z,52.27
2023-12-23T16:53:02.627Z,52.24
2023-12-23T16:55:48.682Z,51.75
2023-12-23T16:58:34.856Z,51.88
2023-12-23T17:01:21.139Z,52.03
2023-12-23T17:04:07.964Z,52.23
2023-12-23T17:06:54.306Z,51.91
2023-12-23T17:09:40.515Z,51.80
2023-12-23T17:12:28.148Z,51.91
2023-12-23T17:15:14.897Z,52.33
2023-12-23T17:18:01.728Z,52.40
2023-12-23T17:20:48.743Z,52.18
2023-12-23T17:23:35.059Z,52.57
2023-12-23T17:26:21.120Z,52.22
2023-12-23T17:29:08.453Z,52.16
2023-12-23T17:31:56.146Z,52.19
2023-12-23T17:34:42.449Z,52.25
2023-12-23T17:37:40.235Z,52.44
2023-12-23T17:40:28.946Z,52.13
2023-12-23T17:43:15.341Z,52.34
2023-12-23T17:46:01.500Z,51.90
2023-12-23T17:48:47.670Z,52.77
2023-12-23T17:51:33.780Z,52.40
2023-12-23T17:54:19.881Z,52.52
2023-12-23T17:57:06.452Z,52.22
2023-12-23T17:59:52.712Z,52.35
2023-12-23T18:02:39.157Z,52.67
2023-12-23T18:05:25.516Z,52.75
2023-12-23T18:08:12.172Z,52.16
2023-12-23T18:10:57.996Z,52.36
2023-12-23T18:13:44.178Z,52.40
2023-12-23T18:16:30.297Z,52.70
2023-12-23T18:19:16.383Z,52.83
2023-12-23T18:22:03.107Z,52.45
2023-12-23T18:24:49.075Z,52.46
2023-12-23T18:27:35.138Z,52.80
2023-12-23T18:30:24.052Z,52.90
2023-12-23T18:33:10.162Z,52.78
2023-12-23T18:35:56.588Z,53.84
2023-12-23T18:38:43.108Z,53.37
2023-12-23T18:41:29.421Z,53.39
2023-12-23T18:44:15.373Z,52.87
2023-12-23T18:47:01.253Z,53.34
2023-12-23T18:49:47.372Z,53.12
2023-12-23T18:52:33.467Z,53.08
2023-12-23T18:55:19.338Z,53.00
2023-12-23T18:58:05.536Z,53.23
2023-12-23T19:00:53.849Z,53.04
2023-12-23T19:03:40.058Z,52.93
2023-12-23T19:06:25.891Z,53.32
2023-12-23T19:09:12.967Z,53.27
2023-12-23T19:11:59.007Z,53.18
2023-12-23T19:14:45.320Z,53.10
2023-12-23T19:17:31.427Z,53.24
2023-12-23T19:20:17.638Z,53.17
2023-12-23T19:23:08.886Z,53.02
2023-12-23T19:25:56.760Z,53.33
2023-12-23T19:28:43.140Z,53.34
2023-12-23T19:31:32.354Z,53.04
2023-12-23T19:34:19.773Z,53.41
2023-12-23T19:37:05.855Z,53.30
2023-12-23T19:39:59.720Z,53.42
2023-12-23T19:42:54.488Z,53.25
2023-12-23T19:45:44.134Z,53.21
2023-12-23T19:48:30.565Z,53.23
2023-12-23T19:51:16.684Z,53.28
2023-12-23T19:54:03.114Z,53.73
2023-12-23T19:56:50.702Z,53.42
2023-12-23T19:59:37.126Z,53.54
2023-12-23T20:02:23.476Z,53.37
2023-12-23T20:05:09.908Z,53.58
2023-12-23T20:07:57.342Z,53.71
2023-12-23T20:10:43.562Z,53.64
2023-12-23T20:13:29.913Z,53.69
2023-12-23T20:16:26.235Z,54.02
2023-12-23T20:19:17.277Z,54.13
2023-12-23T20:22:03.546Z,53.73
2023-12-23T20:24:49.877Z,54.03
2023-12-23T20:27:36.377Z,53.69
2023-12-23T20:30:22.738Z,53.76
2023-12-23T20:33:09.157Z,53.76
2023-12-23T20:35:56.288Z,54.08
2023-12-23T20:38:42.570Z,53.87
2023-12-23T20:41:28.966Z,54.02
2023-12-23T20:44:15.240Z,53.61
2023-12-23T20:47:01.600Z,53.82
2023-12-23T20:49:48.018Z,53.96
2023-12-23T20:52:34.057Z,54.48
2023-12-23T20:55:21.285Z,53.97
2023-12-23T20:58:07.444Z,54.32
2023-12-23T21:00:53.739Z,53.73
2023-12-23T21:03:39.912Z,53.94
2023-12-23T21:06:26.046Z,53.80
2023-12-23T21:09:12.493Z,54.26
2023-12-23T21:11:58.521Z,54.55
2023-12-23T21:14:44.558Z,54.27
2023-12-23T21:17:30.798Z,54.06
2023-12-23T21:20:16.872Z,54.19
2023-12-23T21:23:03.311Z,54.68
2023-12-23T21:25:52.149Z,54.54
2023-12-23T21:28:38.410Z,54.25
2023-12-23T21:31:24.564Z,54.12
2023-12-23T21:34:10.976Z,54.81
2023-12-23T21:37:00.172Z,54.43
2023-12-23T21:39:46.153Z,54.32
2023-12-23T21:42:32.364Z,54.54
2023-12-23T21:45:18.450Z,55.20
2023-12-23T21:48:05.626Z,54.58
2023-12-23T21:50:55.347Z,55.06
2023-12-23T21:53:41.785Z,54.71
2023-12-23T21:56:28.526Z,54.61
2023-12-23T21:59:15.234Z,54.55
2023-12-23T22:02:01.327Z,54.34
2023-12-23T22:04:47.801Z,54.56
2023-12-23T22:07:33.819Z,54.47
2023-12-23T22:10:19.880Z,55.20
2023-12-23T22:13:06.167Z,54.96
2023-12-23T22:15:52.857Z,54.64
2023-12-23T22:18:39.398Z,54.96
2023-12-23T22:21:25.983Z,54.63
2023-12-23T22:24:12.280Z,55.46
2023-12-23T22:26:58.698Z,54.76
2023-12-23T22:29:45.304Z,54.57
2023-12-23T22:32:31.737Z,54.58
2023-12-23T22:35:18.750Z,55.25
2023-12-23T22:38:05.037Z,55.46
2023-12-23T22:40:52.142Z,55.18
2023-12-23T22:43:38.573Z,54.89
2023-12-23T22:46:28.695Z,54.95
2023-12-23T22:49:14.941Z,55.43
2023-12-23T22:52:01.168Z,55.34
2023-12-23T22:54:47.053Z,55.26
2023-12-23T22:57:42.128Z,55.04
2023-12-23T23:00:30.693Z,55.46
2023-12-23T23:03:17.562Z,55.04
2023-12-23T23:06:03.570Z,55.26
2023-12-23T23:08:49.941Z,55.01
2023-12-23T23:11:36.790Z,54.93
2023-12-23T23:14:23.112Z,55.02
2023-12-23T23:17:09.546Z,55.32
2023-12-23T23:19:56.716Z,55.35
2023-12-23T23:22:42.758Z,55.06
2023-12-23T23:25:29.085Z,55.31
2023-12-23T23:28:15.293Z,55.95
2023-12-23T23:31:02.233Z,54.86
2023-12-23T23:33:55.282Z,55.24
2023-12-23T23:36:45.614Z,55.13
2023-12-23T23:39:31.755Z,55.38
2023-12-23T23:42:18.700Z,55.16
2023-12-23T23:45:05.567Z,55.52
2023-12-23T23:47:52.025Z,55.62
2023-12-23T23:50:38.042Z,55.63
2023-12-23T23:53:24.414Z,55.21
2023-12-23T23:56:11.414Z,55.51
2023-12-23T23:58:57.876Z,55.35
